Other Surface Observations
Issued by NWS Great Falls, MT

Home | Current Version | Previous Version | Text Only | Print | Product List | Glossary On
Versions: 1 2 3 4 5 6 7 8 9 10 11 12 13 14 15 16 17 18 19 20 21 22 23 24 25 26 27 28 29 30 31 32 33 34 35 36 37 38 39 40 41 42 43 44 45 46 47 48 49 50
422
SXUS55 KTFX 270529
OSOTFX
AREA AWOS OBSERVATIONS
NATIONAL WEATHER SERVICE GREAT FALLS MT
1129 PM MDT FRI MAY 26 2017

METAR KPWD 270530Z AUTO 28003KT 10SM 10/03 A2984 RMK PLENTYWOOD
METAR KPO1 270530Z AUTO 00000KT 10SM 09/03 A2988 RMK POPLAR
METAR K1S3 270530Z AUTO 00000KT 10SM 12/03 A2995 RMK FORSYTH
METAR KS71 270530Z AUTO 28003KT 10SM 11/04 A2990 RMK CHINOOK
METAR K79S 270530Z AUTO 00000KT 10SM 12/04 A2997 RMK FORT BENTON
METAR K38S 270530Z AUTO 00000KT 10SM 08/04 A3008 RMK DEER LODGE
METAR K3U3 270530Z AUTO 00000KT 10SM 08/01 A3007 RMK ANACONDA
METAR K6S5 270530Z AUTO 14003KT 10SM 13/04 A3005 RMK HAMILTON
METAR K88M 270530Z AUTO 00000KT 10SM 11/05 A2996 RMK EUREKA



USA.gov is the U.S. government's official web portal to all federal, state and local government web resources and services.